sensor_id;sensor_type;location;lat;lon;timestamp;P1;durP1;ratioP1;P2;durP2;ratioP2
20908;SDS011;10614;53.198;6.570;2023-07-30T00:01:37;17.00;;;6.07;;
20908;SDS011;10614;53.198;6.570;2023-07-30T00:03:39;15.43;;;6.15;;
20908;SDS011;10614;53.198;6.570;2023-07-30T00:05:43;20.98;;;6.25;;
20908;SDS011;10614;53.198;6.570;2023-07-30T00:07:53;15.15;;;5.68;;
20908;SDS011;10614;53.198;6.570;2023-07-30T00:09:55;14.90;;;5.63;;
20908;SDS011;10614;53.198;6.570;2023-07-30T00:11:57;17.13;;;6.43;;
20908;SDS011;10614;53.198;6.570;2023-07-30T00:13:59;16.55;;;5.82;;
20908;SDS011;10614;53.198;6.570;2023-07-30T00:16:01;16.67;;;6.57;;
20908;SDS011;10614;53.198;6.570;2023-07-30T00:18:02;16.85;;;6.28;;
20908;SDS011;10614;53.198;6.570;2023-07-30T00:20:05;18.92;;;6.35;;
20908;SDS011;10614;53.198;6.570;2023-07-30T00:22:09;14.82;;;6.25;;
20908;SDS011;10614;53.198;6.570;2023-07-30T00:24:11;18.15;;;6.80;;
20908;SDS011;10614;53.198;6.570;2023-07-30T00:26:13;13.90;;;6.25;;
20908;SDS011;10614;53.198;6.570;2023-07-30T00:28:16;16.40;;;5.95;;
20908;SDS011;10614;53.198;6.570;2023-07-30T00:30:18;17.00;;;6.88;;
20908;SDS011;10614;53.198;6.570;2023-07-30T00:32:20;15.55;;;6.90;;
20908;SDS011;10614;53.198;6.570;2023-07-30T00:34:21;13.52;;;5.95;;
20908;SDS011;10614;53.198;6.570;2023-07-30T00:36:22;16.25;;;6.47;;
20908;SDS011;10614;53.198;6.570;2023-07-30T00:38:25;12.98;;;6.28;;
20908;SDS011;10614;53.198;6.570;2023-07-30T00:40:27;17.60;;;6.72;;
20908;SDS011;10614;53.198;6.570;2023-07-30T00:42:29;14.15;;;5.97;;
20908;SDS011;10614;53.198;6.570;2023-07-30T00:44:31;12.23;;;6.03;;
20908;SDS011;10614;53.198;6.570;2023-07-30T00:46:32;15.18;;;6.50;;
20908;SDS011;10614;53.198;6.570;2023-07-30T00:48:34;15.48;;;5.88;;
20908;SDS011;10614;53.198;6.570;2023-07-30T00:50:37;12.90;;;5.70;;
20908;SDS011;10614;53.198;6.570;2023-07-30T00:52:40;20.58;;;8.82;;
20908;SDS011;10614;53.198;6.570;2023-07-30T00:54:43;19.55;;;7.10;;
20908;SDS011;10614;53.198;6.570;2023-07-30T00:56:49;20.33;;;7.03;;
20908;SDS011;10614;53.198;6.570;2023-07-30T01:00:54;16.70;;;6.45;;
20908;SDS011;10614;53.198;6.570;2023-07-30T01:02:57;18.73;;;6.72;;
20908;SDS011;10614;53.198;6.570;2023-07-30T01:04:59;15.82;;;6.68;;
20908;SDS011;10614;53.198;6.570;2023-07-30T01:07:03;14.63;;;5.95;;
20908;SDS011;10614;53.198;6.570;2023-07-30T01:09:04;19.05;;;6.53;;
20908;SDS011;10614;53.198;6.570;2023-07-30T01:11:10;17.42;;;6.55;;
20908;SDS011;10614;53.198;6.570;2023-07-30T01:13:13;15.35;;;6.15;;
20908;SDS011;10614;53.198;6.570;2023-07-30T01:15:17;18.35;;;6.38;;
20908;SDS011;10614;53.198;6.570;2023-07-30T01:17:19;18.60;;;6.63;;
20908;SDS011;10614;53.198;6.570;2023-07-30T01:19:22;16.40;;;5.93;;
20908;SDS011;10614;53.198;6.570;2023-07-30T01:21:26;13.77;;;6.20;;
20908;SDS011;10614;53.198;6.570;2023-07-30T01:23:27;17.80;;;6.30;;
20908;SDS011;10614;53.198;6.570;2023-07-30T01:25:30;20.02;;;6.20;;
20908;SDS011;10614;53.198;6.570;2023-07-30T01:27:39;15.40;;;5.90;;
20908;SDS011;10614;53.198;6.570;2023-07-30T01:29:48;20.15;;;6.22;;
20908;SDS011;10614;53.198;6.570;2023-07-30T01:31:53;17.10;;;6.05;;
20908;SDS011;10614;53.198;6.570;2023-07-30T01:33:57;19.02;;;5.72;;
20908;SDS011;10614;53.198;6.570;2023-07-30T01:36:03;19.23;;;6.22;;
20908;SDS011;10614;53.198;6.570;2023-07-30T01:38:07;16.80;;;5.57;;
20908;SDS011;10614;53.198;6.570;2023-07-30T01:40:10;15.98;;;5.80;;
20908;SDS011;10614;53.198;6.570;2023-07-30T01:42:12;18.48;;;6.63;;
20908;SDS011;10614;53.198;6.570;2023-07-30T01:44:14;14.07;;;5.80;;
20908;SDS011;10614;53.198;6.570;2023-07-30T01:46:16;15.55;;;5.70;;
20908;SDS011;10614;53.198;6.570;2023-07-30T01:48:18;16.63;;;5.82;;
20908;SDS011;10614;53.198;6.570;2023-07-30T01:50:20;13.73;;;5.72;;
20908;SDS011;10614;53.198;6.570;2023-07-30T01:52:22;18.05;;;5.88;;
20908;SDS011;10614;53.198;6.570;2023-07-30T01:54:25;13.90;;;5.55;;
20908;SDS011;10614;53.198;6.570;2023-07-30T01:56:27;12.43;;;5.72;;
20908;SDS011;10614;53.198;6.570;2023-07-30T01:58:27;12.90;;;5.05;;
20908;SDS011;10614;53.198;6.570;2023-07-30T02:00:31;14.82;;;5.65;;
20908;SDS011;10614;53.198;6.570;2023-07-30T02:02:33;16.20;;;5.32;;
20908;SDS011;10614;53.198;6.570;2023-07-30T02:04:35;14.10;;;5.38;;
20908;SDS011;10614;53.198;6.570;2023-07-30T02:06:38;16.08;;;5.50;;
20908;SDS011;10614;53.198;6.570;2023-07-30T02:08:40;19.42;;;6.75;;
20908;SDS011;10614;53.198;6.570;2023-07-30T02:10:43;14.13;;;5.38;;
20908;SDS011;10614;53.198;6.570;2023-07-30T02:12:44;17.38;;;5.97;;
20908;SDS011;10614;53.198;6.570;2023-07-30T02:14:46;17.42;;;5.38;;
20908;SDS011;10614;53.198;6.570;2023-07-30T02:16:48;15.13;;;5.47;;
20908;SDS011;10614;53.198;6.570;2023-07-30T02:18:49;18.15;;;6.10;;
20908;SDS011;10614;53.198;6.570;2023-07-30T02:20:51;15.68;;;5.57;;
20908;SDS011;10614;53.198;6.570;2023-07-30T02:22:53;14.73;;;4.95;;
20908;SDS011;10614;53.198;6.570;2023-07-30T02:24:54;15.73;;;5.63;;
20908;SDS011;10614;53.198;6.570;2023-07-30T02:26:58;17.73;;;6.15;;
20908;SDS011;10614;53.198;6.570;2023-07-30T02:29:00;16.42;;;5.57;;
20908;SDS011;10614;53.198;6.570;2023-07-30T02:31:02;16.40;;;6.45;;
20908;SDS011;10614;53.198;6.570;2023-07-30T02:33:04;21.75;;;5.53;;
20908;SDS011;10614;53.198;6.570;2023-07-30T02:35:06;21.75;;;6.10;;
20908;SDS011;10614;53.198;6.570;2023-07-30T02:37:08;21.60;;;6.75;;
20908;SDS011;10614;53.198;6.570;2023-07-30T02:39:10;17.88;;;6.10;;
20908;SDS011;10614;53.198;6.570;2023-07-30T02:41:12;17.50;;;5.70;;
20908;SDS011;10614;53.198;6.570;2023-07-30T02:43:15;19.85;;;5.93;;
20908;SDS011;10614;53.198;6.570;2023-07-30T02:45:16;14.75;;;5.35;;
20908;SDS011;10614;53.198;6.570;2023-07-30T02:47:18;15.18;;;5.30;;
20908;SDS011;10614;53.198;6.570;2023-07-30T02:49:20;16.23;;;5.70;;
20908;SDS011;10614;53.198;6.570;2023-07-30T02:51:21;20.33;;;5.80;;
20908;SDS011;10614;53.198;6.570;2023-07-30T02:53:23;17.55;;;6.15;;
20908;SDS011;10614;53.198;6.570;2023-07-30T02:55:25;17.33;;;6.07;;
20908;SDS011;10614;53.198;6.570;2023-07-30T02:57:27;18.02;;;5.22;;
20908;SDS011;10614;53.198;6.570;2023-07-30T02:59:30;20.65;;;6.10;;
20908;SDS011;10614;53.198;6.570;2023-07-30T03:01:36;20.23;;;6.90;;
20908;SDS011;10614;53.198;6.570;2023-07-30T03:03:36;20.83;;;6.00;;
20908;SDS011;10614;53.198;6.570;2023-07-30T03:05:41;21.25;;;6.10;;
20908;SDS011;10614;53.198;6.570;2023-07-30T03:07:43;17.25;;;5.65;;
20908;SDS011;10614;53.198;6.570;2023-07-30T03:09:44;16.15;;;5.05;;
20908;SDS011;10614;53.198;6.570;2023-07-30T03:11:46;17.35;;;5.68;;
20908;SDS011;10614;53.198;6.570;2023-07-30T03:13:48;15.18;;;5.72;;
20908;SDS011;10614;53.198;6.570;2023-07-30T03:15:50;17.10;;;5.70;;
20908;SDS011;10614;53.198;6.570;2023-07-30T03:17:52;14.70;;;5.20;;
20908;SDS011;10614;53.198;6.570;2023-07-30T03:19:54;18.08;;;5.32;;
20908;SDS011;10614;53.198;6.570;2023-07-30T03:21:57;21.13;;;5.30;;
20908;SDS011;10614;53.198;6.570;2023-07-30T03:24:02;16.73;;;5.10;;
20908;SDS011;10614;53.198;6.570;2023-07-30T03:26:04;16.98;;;5.40;;
20908;SDS011;10614;53.198;6.570;2023-07-30T03:28:05;22.63;;;5.43;;
20908;SDS011;10614;53.198;6.570;2023-07-30T03:30:07;20.70;;;5.72;;
20908;SDS011;10614;53.198;6.570;2023-07-30T03:32:12;15.88;;;5.13;;
20908;SDS011;10614;53.198;6.570;2023-07-30T03:34:13;17.17;;;5.45;;
20908;SDS011;10614;53.198;6.570;2023-07-30T03:36:16;13.70;;;4.97;;
20908;SDS011;10614;53.198;6.570;2023-07-30T03:38:17;19.33;;;5.32;;
20908;SDS011;10614;53.198;6.570;2023-07-30T03:40:19;14.93;;;4.72;;
20908;SDS011;10614;53.198;6.570;2023-07-30T03:42:21;23.33;;;5.95;;
20908;SDS011;10614;53.198;6.570;2023-07-30T03:44:23;17.13;;;5.10;;
20908;SDS011;10614;53.198;6.570;2023-07-30T03:46:25;19.75;;;5.72;;
20908;SDS011;10614;53.198;6.570;2023-07-30T03:48:28;16.55;;;5.47;;
20908;SDS011;10614;53.198;6.570;2023-07-30T03:50:30;25.20;;;5.93;;
20908;SDS011;10614;53.198;6.570;2023-07-30T03:52:32;17.50;;;5.32;;
20908;SDS011;10614;53.198;6.570;2023-07-30T03:54:34;19.90;;;6.18;;
20908;SDS011;10614;53.198;6.570;2023-07-30T03:56:35;17.25;;;4.95;;
20908;SDS011;10614;53.198;6.570;2023-07-30T03:58:36;21.10;;;6.35;;
20908;SDS011;10614;53.198;6.570;2023-07-30T04:00:38;23.27;;;6.03;;
20908;SDS011;10614;53.198;6.570;2023-07-30T04:02:41;19.23;;;6.20;;
20908;SDS011;10614;53.198;6.570;2023-07-30T04:04:44;19.55;;;6.13;;
20908;SDS011;10614;53.198;6.570;2023-07-30T04:06:48;19.20;;;5.93;;
20908;SDS011;10614;53.198;6.570;2023-07-30T04:08:50;15.68;;;5.45;;
20908;SDS011;10614;53.198;6.570;2023-07-30T04:10:51;21.55;;;6.53;;
20908;SDS011;10614;53.198;6.570;2023-07-30T04:12:52;22.20;;;5.38;;
20908;SDS011;10614;53.198;6.570;2023-07-30T04:14:54;21.05;;;5.97;;
20908;SDS011;10614;53.198;6.570;2023-07-30T04:16:55;21.48;;;6.03;;
20908;SDS011;10614;53.198;6.570;2023-07-30T04:18:56;16.58;;;5.65;;
20908;SDS011;10614;53.198;6.570;2023-07-30T04:21:02;20.65;;;5.65;;
20908;SDS011;10614;53.198;6.570;2023-07-30T04:23:04;19.48;;;5.82;;
20908;SDS011;10614;53.198;6.570;2023-07-30T04:25:06;15.32;;;5.22;;
20908;SDS011;10614;53.198;6.570;2023-07-30T04:27:10;17.13;;;5.45;;
20908;SDS011;10614;53.198;6.570;2023-07-30T04:29:13;18.73;;;5.63;;
20908;SDS011;10614;53.198;6.570;2023-07-30T04:31:16;21.33;;;5.47;;
20908;SDS011;10614;53.198;6.570;2023-07-30T04:33:18;18.48;;;5.40;;
20908;SDS011;10614;53.198;6.570;2023-07-30T04:35:20;19.08;;;5.18;;
20908;SDS011;10614;53.198;6.570;2023-07-30T04:37:23;17.15;;;4.93;;
20908;SDS011;10614;53.198;6.570;2023-07-30T04:39:25;16.98;;;5.70;;
20908;SDS011;10614;53.198;6.570;2023-07-30T04:41:27;18.33;;;5.57;;
20908;SDS011;10614;53.198;6.570;2023-07-30T04:43:29;21.20;;;6.05;;
20908;SDS011;10614;53.198;6.570;2023-07-30T04:45:31;17.17;;;5.10;;
20908;SDS011;10614;53.198;6.570;2023-07-30T04:47:33;17.45;;;6.18;;
20908;SDS011;10614;53.198;6.570;2023-07-30T04:49:34;24.23;;;5.65;;
20908;SDS011;10614;53.198;6.570;2023-07-30T04:51:37;18.10;;;5.75;;
20908;SDS011;10614;53.198;6.570;2023-07-30T04:53:43;17.10;;;4.70;;
20908;SDS011;10614;53.198;6.570;2023-07-30T04:55:48;18.60;;;5.68;;
20908;SDS011;10614;53.198;6.570;2023-07-30T04:57:53;16.23;;;5.03;;
20908;SDS011;10614;53.198;6.570;2023-07-30T04:59:55;20.30;;;5.30;;
20908;SDS011;10614;53.198;6.570;2023-07-30T05:01:56;19.30;;;5.57;;
20908;SDS011;10614;53.198;6.570;2023-07-30T05:03:59;21.20;;;5.05;;
20908;SDS011;10614;53.198;6.570;2023-07-30T05:06:01;21.77;;;5.55;;
20908;SDS011;10614;53.198;6.570;2023-07-30T05:08:03;21.13;;;5.70;;
20908;SDS011;10614;53.198;6.570;2023-07-30T05:10:07;18.63;;;5.90;;
20908;SDS011;10614;53.198;6.570;2023-07-30T05:12:11;19.02;;;5.35;;
20908;SDS011;10614;53.198;6.570;2023-07-30T05:14:12;16.42;;;5.00;;
20908;SDS011;10614;53.198;6.570;2023-07-30T05:16:14;17.15;;;4.75;;
20908;SDS011;10614;53.198;6.570;2023-07-30T05:18:16;16.27;;;4.53;;
20908;SDS011;10614;53.198;6.570;2023-07-30T05:20:18;16.63;;;5.07;;
20908;SDS011;10614;53.198;6.570;2023-07-30T05:22:20;15.77;;;5.05;;
20908;SDS011;10614;53.198;6.570;2023-07-30T05:24:22;17.95;;;4.97;;
20908;SDS011;10614;53.198;6.570;2023-07-30T05:26:25;12.57;;;4.70;;
20908;SDS011;10614;53.198;6.570;2023-07-30T05:28:34;18.08;;;4.55;;
20908;SDS011;10614;53.198;6.570;2023-07-30T05:30:36;18.65;;;5.35;;
20908;SDS011;10614;53.198;6.570;2023-07-30T05:32:37;17.88;;;4.43;;
20908;SDS011;10614;53.198;6.570;2023-07-30T05:34:39;17.88;;;4.50;;
20908;SDS011;10614;53.198;6.570;2023-07-30T05:36:41;12.65;;;3.92;;
20908;SDS011;10614;53.198;6.570;2023-07-30T05:38:42;13.18;;;3.75;;
20908;SDS011;10614;53.198;6.570;2023-07-30T05:40:44;17.42;;;4.47;;
20908;SDS011;10614;53.198;6.570;2023-07-30T05:42:50;13.40;;;3.70;;
20908;SDS011;10614;53.198;6.570;2023-07-30T05:44:52;11.95;;;3.95;;
20908;SDS011;10614;53.198;6.570;2023-07-30T05:46:54;13.73;;;3.88;;
20908;SDS011;10614;53.198;6.570;2023-07-30T05:48:56;15.23;;;4.05;;
20908;SDS011;10614;53.198;6.570;2023-07-30T05:50:58;16.20;;;4.25;;
20908;SDS011;10614;53.198;6.570;2023-07-30T05:53:00;14.35;;;3.78;;
20908;SDS011;10614;53.198;6.570;2023-07-30T05:55:01;12.52;;;4.00;;
20908;SDS011;10614;53.198;6.570;2023-07-30T05:57:04;14.48;;;3.95;;
20908;SDS011;10614;53.198;6.570;2023-07-30T05:59:07;12.73;;;4.00;;
20908;SDS011;10614;53.198;6.570;2023-07-30T06:01:09;17.92;;;4.28;;
20908;SDS011;10614;53.198;6.570;2023-07-30T06:03:11;16.80;;;3.97;;
20908;SDS011;10614;53.198;6.570;2023-07-30T06:05:13;17.70;;;4.05;;
20908;SDS011;10614;53.198;6.570;2023-07-30T06:07:15;10.85;;;3.58;;
20908;SDS011;10614;53.198;6.570;2023-07-30T06:09:17;11.50;;;3.83;;
20908;SDS011;10614;53.198;6.570;2023-07-30T06:11:22;10.88;;;3.92;;
20908;SDS011;10614;53.198;6.570;2023-07-30T06:13:24;11.27;;;3.78;;
20908;SDS011;10614;53.198;6.570;2023-07-30T06:15:27;8.73;;;3.42;;
20908;SDS011;10614;53.198;6.570;2023-07-30T06:17:29;10.70;;;3.25;;
20908;SDS011;10614;53.198;6.570;2023-07-30T06:19:31;13.40;;;3.20;;
20908;SDS011;10614;53.198;6.570;2023-07-30T06:21:33;12.10;;;3.78;;
20908;SDS011;10614;53.198;6.570;2023-07-30T06:23:35;10.73;;;3.30;;
20908;SDS011;10614;53.198;6.570;2023-07-30T06:25:37;14.88;;;3.72;;
20908;SDS011;10614;53.198;6.570;2023-07-30T06:27:42;14.68;;;3.58;;
20908;SDS011;10614;53.198;6.570;2023-07-30T06:29:44;20.58;;;4.13;;
20908;SDS011;10614;53.198;6.570;2023-07-30T06:31:47;11.45;;;3.13;;
20908;SDS011;10614;53.198;6.570;2023-07-30T06:33:50;12.48;;;3.72;;
20908;SDS011;10614;53.198;6.570;2023-07-30T06:35:51;11.32;;;3.35;;
20908;SDS011;10614;53.198;6.570;2023-07-30T06:37:53;9.95;;;3.22;;
20908;SDS011;10614;53.198;6.570;2023-07-30T06:39:55;14.45;;;3.50;;
20908;SDS011;10614;53.198;6.570;2023-07-30T06:41:57;14.02;;;3.78;;
20908;SDS011;10614;53.198;6.570;2023-07-30T06:43:58;11.57;;;3.58;;
20908;SDS011;10614;53.198;6.570;2023-07-30T06:46:00;16.23;;;3.67;;
20908;SDS011;10614;53.198;6.570;2023-07-30T06:48:03;14.02;;;3.72;;
20908;SDS011;10614;53.198;6.570;2023-07-30T06:50:06;12.35;;;3.75;;
20908;SDS011;10614;53.198;6.570;2023-07-30T06:52:09;10.77;;;3.53;;
20908;SDS011;10614;53.198;6.570;2023-07-30T06:54:11;13.45;;;3.88;;
20908;SDS011;10614;53.198;6.570;2023-07-30T06:56:11;14.02;;;3.63;;
20908;SDS011;10614;53.198;6.570;2023-07-30T06:58:13;18.80;;;4.05;;
20908;SDS011;10614;53.198;6.570;2023-07-30T07:00:15;15.23;;;3.70;;
20908;SDS011;10614;53.198;6.570;2023-07-30T07:02:21;14.98;;;3.95;;
20908;SDS011;10614;53.198;6.570;2023-07-30T07:04:24;16.15;;;3.60;;
20908;SDS011;10614;53.198;6.570;2023-07-30T07:06:26;18.23;;;4.43;;
20908;SDS011;10614;53.198;6.570;2023-07-30T07:08:30;14.43;;;2.97;;
20908;SDS011;10614;53.198;6.570;2023-07-30T07:10:31;14.43;;;3.95;;
20908;SDS011;10614;53.198;6.570;2023-07-30T07:12:33;16.10;;;3.90;;
20908;SDS011;10614;53.198;6.570;2023-07-30T07:14:35;13.77;;;3.28;;
20908;SDS011;10614;53.198;6.570;2023-07-30T07:16:37;11.75;;;3.10;;
20908;SDS011;10614;53.198;6.570;2023-07-30T07:18:38;10.65;;;3.17;;
20908;SDS011;10614;53.198;6.570;2023-07-30T07:20:42;17.73;;;3.65;;
20908;SDS011;10614;53.198;6.570;2023-07-30T07:22:46;9.65;;;3.40;;
20908;SDS011;10614;53.198;6.570;2023-07-30T07:24:48;10.07;;;3.05;;
20908;SDS011;10614;53.198;6.570;2023-07-30T07:26:52;11.63;;;3.33;;
20908;SDS011;10614;53.198;6.570;2023-07-30T07:28:55;11.43;;;2.53;;
20908;SDS011;10614;53.198;6.570;2023-07-30T07:30:57;10.38;;;3.15;;
20908;SDS011;10614;53.198;6.570;2023-07-30T07:32:59;18.33;;;3.13;;
20908;SDS011;10614;53.198;6.570;2023-07-30T07:35:01;10.68;;;2.80;;
20908;SDS011;10614;53.198;6.570;2023-07-30T07:37:04;12.77;;;3.03;;
20908;SDS011;10614;53.198;6.570;2023-07-30T07:39:06;17.20;;;2.85;;
20908;SDS011;10614;53.198;6.570;2023-07-30T07:41:13;17.73;;;3.38;;
20908;SDS011;10614;53.198;6.570;2023-07-30T07:43:15;16.13;;;3.38;;
20908;SDS011;10614;53.198;6.570;2023-07-30T07:45:17;15.32;;;3.30;;
20908;SDS011;10614;53.198;6.570;2023-07-30T07:47:19;11.38;;;2.85;;
20908;SDS011;10614;53.198;6.570;2023-07-30T07:49:21;11.13;;;2.35;;
20908;SDS011;10614;53.198;6.570;2023-07-30T07:51:23;21.05;;;3.28;;
20908;SDS011;10614;53.198;6.570;2023-07-30T07:53:26;17.83;;;3.05;;
20908;SDS011;10614;53.198;6.570;2023-07-30T07:55:28;15.75;;;2.85;;
20908;SDS011;10614;53.198;6.570;2023-07-30T07:57:30;14.80;;;2.60;;
20908;SDS011;10614;53.198;6.570;2023-07-30T07:59:32;12.30;;;2.72;;
20908;SDS011;10614;53.198;6.570;2023-07-30T08:01:34;10.77;;;2.47;;
20908;SDS011;10614;53.198;6.570;2023-07-30T08:03:36;7.30;;;2.00;;
20908;SDS011;10614;53.198;6.570;2023-07-30T08:05:38;30.83;;;3.00;;
20908;SDS011;10614;53.198;6.570;2023-07-30T08:07:40;11.70;;;2.78;;
20908;SDS011;10614;53.198;6.570;2023-07-30T08:09:44;12.63;;;2.53;;
20908;SDS011;10614;53.198;6.570;2023-07-30T08:11:46;9.52;;;2.53;;
20908;SDS011;10614;53.198;6.570;2023-07-30T08:13:47;14.30;;;2.97;;
20908;SDS011;10614;53.198;6.570;2023-07-30T08:15:49;17.27;;;2.67;;
20908;SDS011;10614;53.198;6.570;2023-07-30T08:17:53;16.30;;;2.72;;
20908;SDS011;10614;53.198;6.570;2023-07-30T08:19:55;21.10;;;2.78;;
20908;SDS011;10614;53.198;6.570;2023-07-30T08:21:57;14.95;;;2.33;;
20908;SDS011;10614;53.198;6.570;2023-07-30T08:23:59;10.80;;;2.58;;
20908;SDS011;10614;53.198;6.570;2023-07-30T08:26:02;11.80;;;2.60;;
20908;SDS011;10614;53.198;6.570;2023-07-30T08:28:04;15.50;;;2.45;;
20908;SDS011;10614;53.198;6.570;2023-07-30T08:30:06;13.02;;;2.58;;
20908;SDS011;10614;53.198;6.570;2023-07-30T08:32:08;13.15;;;2.30;;
20908;SDS011;10614;53.198;6.570;2023-07-30T08:34:10;10.63;;;2.03;;
20908;SDS011;10614;53.198;6.570;2023-07-30T08:36:11;6.18;;;2.00;;
20908;SDS011;10614;53.198;6.570;2023-07-30T08:38:12;8.50;;;2.15;;
20908;SDS011;10614;53.198;6.570;2023-07-30T08:40:14;9.77;;;2.20;;
20908;SDS011;10614;53.198;6.570;2023-07-30T08:42:17;10.85;;;2.25;;
20908;SDS011;10614;53.198;6.570;2023-07-30T08:44:19;7.28;;;1.85;;
20908;SDS011;10614;53.198;6.570;2023-07-30T08:46:20;9.35;;;2.53;;
20908;SDS011;10614;53.198;6.570;2023-07-30T08:48:22;13.48;;;2.50;;
20908;SDS011;10614;53.198;6.570;2023-07-30T08:50:23;6.93;;;1.80;;
20908;SDS011;10614;53.198;6.570;2023-07-30T08:52:25;11.82;;;2.58;;
20908;SDS011;10614;53.198;6.570;2023-07-30T08:54:31;7.85;;;1.95;;
20908;SDS011;10614;53.198;6.570;2023-07-30T08:56:32;8.57;;;2.33;;
20908;SDS011;10614;53.198;6.570;2023-07-30T08:58:36;10.70;;;2.55;;
20908;SDS011;10614;53.198;6.570;2023-07-30T09:00:38;6.88;;;1.80;;
20908;SDS011;10614;53.198;6.570;2023-07-30T09:02:48;5.68;;;1.88;;
20908;SDS011;10614;53.198;6.570;2023-07-30T09:04:53;8.07;;;1.88;;
20908;SDS011;10614;53.198;6.570;2023-07-30T09:07:00;8.57;;;1.92;;
20908;SDS011;10614;53.198;6.570;2023-07-30T09:09:02;6.95;;;1.92;;
20908;SDS011;10614;53.198;6.570;2023-07-30T09:11:07;7.13;;;2.03;;
20908;SDS011;10614;53.198;6.570;2023-07-30T09:13:09;5.97;;;1.67;;
20908;SDS011;10614;53.198;6.570;2023-07-30T09:15:12;9.00;;;2.00;;
20908;SDS011;10614;53.198;6.570;2023-07-30T09:17:16;6.60;;;1.80;;
20908;SDS011;10614;53.198;6.570;2023-07-30T09:19:18;8.48;;;2.20;;
20908;SDS011;10614;53.198;6.570;2023-07-30T09:25:39;7.55;;;2.05;;
20908;SDS011;10614;53.198;6.570;2023-07-30T09:27:41;9.63;;;2.22;;
20908;SDS011;10614;53.198;6.570;2023-07-30T09:29:48;13.07;;;2.53;;
20908;SDS011;10614;53.198;6.570;2023-07-30T09:31:54;11.70;;;2.28;;
20908;SDS011;10614;53.198;6.570;2023-07-30T09:33:56;9.93;;;2.08;;
20908;SDS011;10614;53.198;6.570;2023-07-30T09:36:00;12.98;;;2.42;;
20908;SDS011;10614;53.198;6.570;2023-07-30T09:38:03;8.75;;;2.03;;
20908;SDS011;10614;53.198;6.570;2023-07-30T09:40:05;8.82;;;2.10;;
20908;SDS011;10614;53.198;6.570;2023-07-30T09:42:08;10.25;;;2.35;;
20908;SDS011;10614;53.198;6.570;2023-07-30T09:44:10;10.55;;;2.10;;
20908;SDS011;10614;53.198;6.570;2023-07-30T09:46:13;8.90;;;1.83;;
20908;SDS011;10614;53.198;6.570;2023-07-30T09:48:18;6.43;;;2.00;;
20908;SDS011;10614;53.198;6.570;2023-07-30T09:50:21;8.40;;;2.00;;
20908;SDS011;10614;53.198;6.570;2023-07-30T09:52:23;6.80;;;1.90;;
20908;SDS011;10614;53.198;6.570;2023-07-30T09:54:25;8.48;;;2.20;;
20908;SDS011;10614;53.198;6.570;2023-07-30T09:56:28;7.05;;;2.28;;
20908;SDS011;10614;53.198;6.570;2023-07-30T09:58:29;6.30;;;1.85;;
20908;SDS011;10614;53.198;6.570;2023-07-30T10:00:31;6.40;;;1.65;;
20908;SDS011;10614;53.198;6.570;2023-07-30T10:02:36;8.32;;;2.35;;
20908;SDS011;10614;53.198;6.570;2023-07-30T10:04:42;5.95;;;1.55;;
20908;SDS011;10614;53.198;6.570;2023-07-30T10:06:51;4.53;;;1.67;;
20908;SDS011;10614;53.198;6.570;2023-07-30T10:08:58;6.65;;;1.75;;
20908;SDS011;10614;53.198;6.570;2023-07-30T10:11:02;7.32;;;1.65;;
20908;SDS011;10614;53.198;6.570;2023-07-30T10:13:08;7.53;;;1.70;;
20908;SDS011;10614;53.198;6.570;2023-07-30T10:15:12;5.45;;;1.75;;
20908;SDS011;10614;53.198;6.570;2023-07-30T10:17:14;5.80;;;1.42;;
20908;SDS011;10614;53.198;6.570;2023-07-30T10:19:21;5.30;;;1.40;;
20908;SDS011;10614;53.198;6.570;2023-07-30T10:21:26;4.20;;;1.40;;
20908;SDS011;10614;53.198;6.570;2023-07-30T10:23:32;5.13;;;1.42;;
20908;SDS011;10614;53.198;6.570;2023-07-30T10:25:44;5.70;;;1.48;;
20908;SDS011;10614;53.198;6.570;2023-07-30T10:27:48;5.40;;;1.67;;
20908;SDS011;10614;53.198;6.570;2023-07-30T10:32:16;3.22;;;1.25;;
20908;SDS011;10614;53.198;6.570;2023-07-30T10:34:18;6.55;;;1.60;;
20908;SDS011;10614;53.198;6.570;2023-07-30T10:36:30;5.45;;;2.00;;
20908;SDS011;10614;53.198;6.570;2023-07-30T10:38:35;10.98;;;1.85;;
20908;SDS011;10614;53.198;6.570;2023-07-30T10:40:46;9.20;;;2.25;;
20908;SDS011;10614;53.198;6.570;2023-07-30T10:43:02;9.65;;;2.53;;
20908;SDS011;10614;53.198;6.570;2023-07-30T10:45:06;9.88;;;2.60;;
20908;SDS011;10614;53.198;6.570;2023-07-30T10:47:09;11.85;;;2.70;;
20908;SDS011;10614;53.198;6.570;2023-07-30T10:49:16;10.75;;;2.70;;
20908;SDS011;10614;53.198;6.570;2023-07-30T10:51:18;8.23;;;2.50;;
20908;SDS011;10614;53.198;6.570;2023-07-30T10:53:24;11.68;;;3.10;;
20908;SDS011;10614;53.198;6.570;2023-07-30T10:55:29;10.23;;;2.63;;
20908;SDS011;10614;53.198;6.570;2023-07-30T10:57:32;10.73;;;2.67;;
20908;SDS011;10614;53.198;6.570;2023-07-30T10:59:36;9.70;;;3.00;;
20908;SDS011;10614;53.198;6.570;2023-07-30T11:01:39;10.80;;;3.00;;
20908;SDS011;10614;53.198;6.570;2023-07-30T11:03:42;12.88;;;3.47;;
20908;SDS011;10614;53.198;6.570;2023-07-30T11:05:46;10.05;;;3.13;;
20908;SDS011;10614;53.198;6.570;2023-07-30T11:07:51;13.20;;;2.78;;
20908;SDS011;10614;53.198;6.570;2023-07-30T11:10:00;10.52;;;3.00;;
20908;SDS011;10614;53.198;6.570;2023-07-30T11:12:02;11.90;;;3.05;;
20908;SDS011;10614;53.198;6.570;2023-07-30T11:14:06;12.98;;;2.80;;
20908;SDS011;10614;53.198;6.570;2023-07-30T11:16:16;12.82;;;2.88;;
20908;SDS011;10614;53.198;6.570;2023-07-30T11:18:18;12.63;;;3.15;;
20908;SDS011;10614;53.198;6.570;2023-07-30T11:20:23;14.63;;;2.92;;
20908;SDS011;10614;53.198;6.570;2023-07-30T11:22:30;10.85;;;2.70;;
20908;SDS011;10614;53.198;6.570;2023-07-30T11:24:36;14.32;;;3.28;;
20908;SDS011;10614;53.198;6.570;2023-07-30T11:26:40;11.43;;;2.78;;
20908;SDS011;10614;53.198;6.570;2023-07-30T11:28:42;13.23;;;2.42;;
20908;SDS011;10614;53.198;6.570;2023-07-30T11:30:44;12.15;;;3.05;;
20908;SDS011;10614;53.198;6.570;2023-07-30T11:32:46;12.75;;;2.63;;
20908;SDS011;10614;53.198;6.570;2023-07-30T11:34:48;11.60;;;2.65;;
20908;SDS011;10614;53.198;6.570;2023-07-30T11:36:50;8.95;;;2.30;;
20908;SDS011;10614;53.198;6.570;2023-07-30T11:38:52;14.63;;;2.50;;
20908;SDS011;10614;53.198;6.570;2023-07-30T11:40:56;9.25;;;2.50;;
20908;SDS011;10614;53.198;6.570;2023-07-30T11:43:00;12.15;;;2.45;;
20908;SDS011;10614;53.198;6.570;2023-07-30T11:47:21;6.90;;;2.30;;
20908;SDS011;10614;53.198;6.570;2023-07-30T11:49:25;10.18;;;2.60;;
20908;SDS011;10614;53.198;6.570;2023-07-30T11:51:28;10.23;;;2.58;;
20908;SDS011;10614;53.198;6.570;2023-07-30T11:55:51;11.80;;;2.65;;
20908;SDS011;10614;53.198;6.570;2023-07-30T11:57:53;9.32;;;2.42;;
20908;SDS011;10614;53.198;6.570;2023-07-30T11:59:58;11.52;;;2.55;;
20908;SDS011;10614;53.198;6.570;2023-07-30T12:02:03;9.20;;;2.35;;
20908;SDS011;10614;53.198;6.570;2023-07-30T12:04:05;7.90;;;2.53;;
20908;SDS011;10614;53.198;6.570;2023-07-30T12:06:06;11.30;;;2.40;;
20908;SDS011;10614;53.198;6.570;2023-07-30T12:08:12;9.77;;;2.80;;
20908;SDS011;10614;53.198;6.570;2023-07-30T12:10:17;7.63;;;2.00;;
20908;SDS011;10614;53.198;6.570;2023-07-30T12:12:20;11.25;;;2.55;;
20908;SDS011;10614;53.198;6.570;2023-07-30T12:14:27;12.55;;;2.63;;
20908;SDS011;10614;53.198;6.570;2023-07-30T12:18:37;11.45;;;2.38;;
20908;SDS011;10614;53.198;6.570;2023-07-30T12:20:40;9.50;;;2.65;;
20908;SDS011;10614;53.198;6.570;2023-07-30T12:22:42;12.75;;;2.50;;
20908;SDS011;10614;53.198;6.570;2023-07-30T12:24:45;9.55;;;2.50;;
20908;SDS011;10614;53.198;6.570;2023-07-30T12:26:56;10.40;;;2.60;;